Time;durP1;ratioP1;P1;durP2;ratioP2;P2;SDS_P1;SDS_P2;PMS_P1;PMS_P2;Temp;Humidity;BMP_temperature;BMP_pressure;BME280_temperature;BME280_humidity;BME280_pressure;Samples;Min_cycle;Max_cycle;Signal;HPM_P1;HPM_P2
2020/12/11 00:01:37;;;;;;;78.95;41.40;;;4.60;32.90;;;;;;5076416;28;20233;-69
2020/12/11 00:04:03;;;;;;;70.00;43.90;;;4.60;32.00;;;;;;5076036;28;20667;-69
2020/12/11 00:06:28;;;;;;;78.88;44.17;;;4.70;29.70;;;;;;5076191;28;20525;-69
2020/12/11 00:08:54;;;;;;;85.60;40.53;;;4.70;27.50;;;;;;5074591;28;20174;-69
2020/12/11 00:11:29;;;;;;;76.30;42.10;;;4.60;26.80;;;;;;5076024;28;20165;-69
2020/12/11 00:13:56;;;;;;;83.20;42.95;;;4.60;26.40;;;;;;5075387;28;20403;-69
2020/12/11 00:16:22;;;;;;;79.22;41.53;;;4.70;27.50;;;;;;5076089;28;20197;-69
2020/12/11 00:18:48;;;;;;;72.37;42.27;;;4.70;27.30;;;;;;5075884;28;20219;-69
2020/12/11 00:21:13;;;;;;;82.53;42.57;;;4.70;27.10;;;;;;5075757;28;20396;-69
2020/12/11 00:23:39;;;;;;;71.57;41.57;;;4.60;27.40;;;;;;5075358;28;20546;-70
2020/12/11 00:26:05;;;;;;;84.93;42.93;;;4.70;27.30;;;;;;5075287;28;20189;-69
2020/12/11 00:28:30;;;;;;;91.57;41.67;;;4.70;27.30;;;;;;5075927;28;20169;-69
2020/12/11 00:30:57;;;;;;;76.70;42.63;;;4.70;26.50;;;;;;5075895;28;20173;-70
2020/12/11 00:33:24;;;;;;;105.38;48.25;;;4.60;25.80;;;;;;5075018;28;20884;-70
2020/12/11 00:35:51;;;;;;;76.07;47.63;;;4.60;25.80;;;;;;5074074;28;20240;-69
2020/12/11 00:38:17;;;;;;;106.45;52.83;;;4.60;27.20;;;;;;5075724;28;20169;-69
2020/12/11 00:40:43;;;;;;;85.57;42.08;;;4.60;26.40;;;;;;5075520;28;20234;-69
2020/12/11 00:43:09;;;;;;;65.87;44.20;;;4.60;27.70;;;;;;5074922;28;20291;-69
2020/12/11 00:45:34;;;;;;;81.40;44.17;;;4.60;26.70;;;;;;5075235;28;20189;-69
2020/12/11 00:48:00;;;;;;;89.00;44.77;;;4.50;27.10;;;;;;5075413;28;20407;-69
2020/12/11 00:50:25;;;;;;;86.33;48.90;;;4.50;28.00;;;;;;5075009;28;20396;-69
2020/12/11 00:52:51;;;;;;;87.97;45.57;;;4.50;27.70;;;;;;5074865;28;20165;-69
2020/12/11 00:55:17;;;;;;;87.70;50.63;;;4.50;29.50;;;;;;5074917;28;20189;-70
2020/12/11 00:57:44;;;;;;;79.30;46.03;;;4.60;30.00;;;;;;5074898;28;20161;-69
2020/12/11 01:00:14;;;;;;;104.28;44.65;;;4.60;29.80;;;;;;5075458;28;20400;-69
2020/12/11 01:02:40;;;;;;;85.10;43.95;;;4.60;28.50;;;;;;5074871;28;20169;-70
2020/12/11 01:05:06;;;;;;;80.20;46.67;;;4.60;28.80;;;;;;5074557;28;20242;-69
2020/12/11 01:07:31;;;;;;;82.73;38.03;;;4.60;28.10;;;;;;5074894;28;20187;-69
2020/12/11 01:09:57;;;;;;;85.37;40.53;;;4.60;28.00;;;;;;5074853;28;20177;-69
2020/12/11 01:12:23;;;;;;;80.00;46.67;;;4.60;27.80;;;;;;5074982;28;20215;-69
2020/12/11 01:14:48;;;;;;;90.93;40.40;;;4.60;27.50;;;;;;5074375;28;20169;-69
2020/12/11 01:17:14;;;;;;;73.50;43.27;;;4.50;28.50;;;;;;5074503;28;20203;-69
2020/12/11 01:19:39;;;;;;;71.83;44.00;;;4.50;28.40;;;;;;5074680;28;20181;-69
2020/12/11 01:22:05;;;;;;;65.57;47.73;;;4.50;29.40;;;;;;5074547;28;20560;-69
2020/12/11 01:24:31;;;;;;;75.87;44.53;;;4.40;29.90;;;;;;5074013;28;20216;-69
2020/12/11 01:26:57;;;;;;;88.88;43.30;;;4.50;30.00;;;;;;5074455;28;20670;-69
2020/12/11 01:29:23;;;;;;;77.57;47.47;;;4.50;29.60;;;;;;5074136;28;20173;-70
2020/12/11 01:31:48;;;;;;;71.80;44.33;;;4.40;30.30;;;;;;5074344;28;20169;-69
2020/12/11 01:34:14;;;;;;;81.97;44.07;;;4.50;30.70;;;;;;5072665;28;20193;-69
2020/12/11 01:36:39;;;;;;;89.60;46.47;;;4.50;29.70;;;;;;5074131;28;20594;-69
2020/12/11 01:39:05;;;;;;;76.77;50.93;;;4.50;29.70;;;;;;5074065;28;20628;-69
2020/12/11 01:41:32;;;;;;;84.10;52.10;;;4.50;30.40;;;;;;5074455;28;20531;-69
2020/12/11 01:44:06;;;;;;;69.35;46.70;;;4.50;30.70;;;;;;5074015;28;20620;-69
2020/12/11 01:46:40;;;;;;;74.65;47.30;;;4.40;31.60;;;;;;5073913;28;20510;-69
2020/12/11 01:49:07;;;;;;;71.00;39.30;;;4.40;32.00;;;;;;5074247;28;20257;-69
2020/12/11 01:51:34;;;;;;;70.97;40.35;;;4.40;32.50;;;;;;5074028;28;20180;-69
2020/12/11 01:54:00;;;;;;;84.65;43.00;;;4.40;31.90;;;;;;5073927;28;20169;-69
2020/12/11 01:56:33;;;;;;;81.23;40.73;;;4.50;30.40;;;;;;5074055;28;20279;-69
2020/12/11 01:59:04;;;;;;;68.20;40.40;;;4.50;29.70;;;;;;5073975;28;20179;-69
2020/12/11 02:01:35;;;;;;;69.15;39.42;;;4.40;30.60;;;;;;5073899;28;20184;-69
2020/12/11 02:04:03;;;;;;;71.80;42.30;;;4.50;30.50;;;;;;5073763;28;20250;-70
2020/12/11 02:06:29;;;;;;;67.50;38.83;;;4.50;30.30;;;;;;5073945;28;20284;-69
2020/12/11 02:08:58;;;;;;;74.83;38.13;;;4.40;30.40;;;;;;5074234;28;20165;-69
2020/12/11 02:11:24;;;;;;;72.72;43.08;;;4.40;30.90;;;;;;5073778;28;20627;-69
2020/12/11 02:13:50;;;;;;;67.40;39.03;;;4.30;32.00;;;;;;5073443;28;20180;-69
2020/12/11 02:16:25;;;;;;;74.38;41.95;;;4.30;32.50;;;;;;5073755;28;20915;-69
2020/12/11 02:18:50;;;;;;;73.85;44.28;;;4.30;32.70;;;;;;5073963;28;20185;-69
2020/12/11 02:21:16;;;;;;;69.07;46.67;;;4.20;32.90;;;;;;5074001;28;20177;-69
2020/12/11 02:23:45;;;;;;;68.05;47.72;;;4.30;34.60;;;;;;5073273;28;20200;-69
2020/12/11 02:26:12;;;;;;;65.15;40.38;;;4.20;36.10;;;;;;5073602;28;20284;-69
2020/12/11 02:28:37;;;;;;;57.75;35.95;;;4.10;37.60;;;;;;5073701;28;20196;-69
2020/12/11 02:31:04;;;;;;;54.97;35.40;;;4.10;38.30;;;;;;5073692;28;20250;-69
2020/12/11 02:33:30;;;;;;;61.97;40.40;;;4.10;38.10;;;;;;5073449;28;20661;-69
2020/12/11 02:35:56;;;;;;;59.53;40.58;;;4.10;38.90;;;;;;5073380;28;20283;-69
2020/12/11 02:38:21;;;;;;;52.20;35.73;;;4.10;39.40;;;;;;5073771;28;20196;-69
2020/12/11 02:40:53;;;;;;;62.70;37.40;;;4.10;39.40;;;;;;5075118;28;20169;-69
2020/12/11 02:43:19;;;;;;;50.88;39.15;;;4.10;39.20;;;;;;5077580;28;20192;-69
2020/12/11 02:45:47;;;;;;;66.20;38.30;;;4.10;40.20;;;;;;5077500;28;20207;-70
2020/12/11 02:48:13;;;;;;;55.28;36.10;;;4.10;40.00;;;;;;5077819;28;20173;-69
2020/12/11 02:50:39;;;;;;;59.55;36.28;;;4.00;40.10;;;;;;5077861;28;20170;-69
2020/12/11 02:53:05;;;;;;;55.23;35.63;;;4.00;42.00;;;;;;5077668;28;20203;-69
2020/12/11 02:55:31;;;;;;;60.38;36.47;;;4.10;40.60;;;;;;5076020;28;20425;-69
2020/12/11 02:57:56;;;;;;;58.03;36.67;;;4.10;40.80;;;;;;5076147;28;20256;-69
2020/12/11 03:00:22;;;;;;;55.47;36.17;;;4.10;40.50;;;;;;5076187;28;20204;-69
2020/12/11 03:02:48;;;;;;;61.13;37.90;;;4.20;39.00;;;;;;5075701;28;20255;-69
2020/12/11 03:05:13;;;;;;;57.70;35.37;;;4.20;39.60;;;;;;5076696;28;20455;-69
2020/12/11 03:07:39;;;;;;;66.83;40.30;;;4.20;39.60;;;;;;5076919;28;20172;-69
2020/12/11 03:10:04;;;;;;;62.83;36.10;;;4.10;38.80;;;;;;5077160;28;20176;-69
2020/12/11 03:12:30;;;;;;;58.03;37.50;;;4.10;39.90;;;;;;5077020;28;20169;-69
2020/12/11 03:14:55;;;;;;;70.63;41.10;;;4.10;39.20;;;;;;5076566;28;20180;-69
2020/12/11 03:17:21;;;;;;;73.07;37.17;;;4.00;41.90;;;;;;5077168;28;20181;-69
2020/12/11 03:19:46;;;;;;;56.73;36.60;;;3.90;44.90;;;;;;5077195;28;20177;-69
2020/12/11 03:22:12;;;;;;;53.03;32.90;;;3.90;46.50;;;;;;5076610;28;20178;-69
2020/12/11 03:24:38;;;;;;;52.10;34.43;;;3.90;47.10;;;;;;5076422;28;20546;-69
2020/12/11 03:27:04;;;;;;;62.20;38.80;;;3.90;46.80;;;;;;5076765;28;20195;-69
2020/12/11 03:29:29;;;;;;;70.50;36.73;;;3.90;47.60;;;;;;5076901;28;20192;-69
2020/12/11 03:31:55;;;;;;;64.53;37.87;;;4.00;47.20;;;;;;5076920;28;20400;-69
2020/12/11 03:34:20;;;;;;;54.33;32.47;;;3.90;46.40;;;;;;5075541;28;20521;-69
2020/12/11 03:36:49;;;;;;;56.53;38.10;;;3.90;46.60;;;;;;5075402;28;20193;-69
2020/12/11 03:39:15;;;;;;;60.15;35.38;;;3.90;46.70;;;;;;5075259;28;20169;-69
2020/12/11 03:41:40;;;;;;;57.37;35.37;;;3.90;47.50;;;;;;5075392;28;20219;-69
2020/12/11 03:44:06;;;;;;;51.20;34.97;;;3.90;46.50;;;;;;5075109;28;20551;-69
2020/12/11 03:46:31;;;;;;;59.60;37.17;;;3.90;46.60;;;;;;5074967;28;20185;-69
2020/12/11 03:48:57;;;;;;;50.30;37.80;;;3.90;46.40;;;;;;5075606;28;20184;-69
2020/12/11 03:51:23;;;;;;;55.47;37.17;;;3.80;48.80;;;;;;5075384;28;20242;-69
2020/12/11 03:53:49;;;;;;;52.95;37.08;;;3.70;49.20;;;;;;5074329;28;20169;-70
2020/12/11 03:56:15;;;;;;;58.00;40.60;;;3.80;48.30;;;;;;5075252;28;20283;-69
2020/12/11 03:58:41;;;;;;;50.13;37.25;;;3.80;49.80;;;;;;5075365;28;20399;-69
2020/12/11 04:01:13;;;;;;;53.20;39.57;;;3.70;49.20;;;;;;5075299;28;20518;-69
2020/12/11 04:03:39;;;;;;;49.75;32.47;;;3.70;49.80;;;;;;5074978;28;20486;-69
2020/12/11 04:06:16;;;;;;;54.25;37.63;;;3.70;49.80;;;;;;5074573;28;20268;-69
2020/12/11 04:08:43;;;;;;;46.60;34.08;;;3.70;48.80;;;;;;5074999;28;20165;-69
2020/12/11 04:11:13;;;;;;;53.25;35.63;;;3.70;49.00;;;;;;5075113;28;20205;-69
2020/12/11 04:13:39;;;;;;;52.95;36.50;;;3.80;49.70;;;;;;5075107;28;20178;-69
2020/12/11 04:16:05;;;;;;;44.92;35.42;;;3.80;49.50;;;;;;5074983;28;20275;-69
2020/12/11 04:18:31;;;;;;;43.97;29.50;;;3.80;46.20;;;;;;5074570;28;20291;-69
2020/12/11 04:20:57;;;;;;;55.10;36.67;;;3.80;46.70;;;;;;5074625;28;20431;-69
2020/12/11 04:23:24;;;;;;;46.08;35.08;;;3.80;46.40;;;;;;5074755;28;20193;-69
2020/12/11 04:25:49;;;;;;;64.20;40.28;;;3.80;45.40;;;;;;5074302;28;20193;-69
2020/12/11 04:28:15;;;;;;;53.40;36.37;;;3.80;45.50;;;;;;5074875;28;20184;-69
2020/12/11 04:30:41;;;;;;;48.93;33.80;;;3.90;45.00;;;;;;5073692;28;20177;-69
2020/12/11 04:33:07;;;;;;;52.57;33.57;;;3.80;44.20;;;;;;5052261;28;642088;-69
2020/12/11 04:35:33;;;;;;;49.47;37.70;;;3.80;44.60;;;;;;5075083;28;20589;-69
2020/12/11 04:37:59;;;;;;;48.80;36.72;;;3.80;44.30;;;;;;5075368;28;20400;-69
2020/12/11 04:40:24;;;;;;;50.03;36.70;;;3.70;46.20;;;;;;5075139;28;20509;-69
2020/12/11 04:42:51;;;;;;;51.07;35.57;;;3.70;47.50;;;;;;5075657;28;20161;-69
2020/12/11 04:45:17;;;;;;;51.00;33.75;;;3.60;49.70;;;;;;5074902;28;20209;-69
2020/12/11 04:47:44;;;;;;;45.22;36.05;;;3.70;48.50;;;;;;5075018;28;20257;-69
2020/12/11 04:50:11;;;;;;;48.65;38.13;;;3.70;48.60;;;;;;5075135;28;20173;-69
2020/12/11 04:52:41;;;;;;;45.25;36.15;;;3.70;47.30;;;;;;5075217;28;20177;-69
2020/12/11 04:55:13;;;;;;;52.15;39.00;;;3.80;45.90;;;;;;5074805;28;20176;-69
2020/12/11 04:57:47;;;;;;;50.65;35.10;;;3.80;45.20;;;;;;5075228;28;20172;-69
2020/12/11 05:00:14;;;;;;;44.33;33.25;;;3.80;46.90;;;;;;5075051;28;20519;-69
2020/12/11 05:02:41;;;;;;;42.22;33.58;;;3.80;47.40;;;;;;5074894;28;20184;-69
2020/12/11 05:05:07;;;;;;;51.17;32.10;;;3.90;48.70;;;;;;5073600;28;20279;-69
2020/12/11 05:07:33;;;;;;;56.08;36.95;;;3.80;47.10;;;;;;5074693;28;20184;-69
2020/12/11 05:09:59;;;;;;;53.78;35.35;;;3.90;48.60;;;;;;5075168;28;20165;-69
2020/12/11 05:12:25;;;;;;;46.67;37.47;;;3.90;48.30;;;;;;5075200;28;20169;-69
2020/12/11 05:15:03;;;;;;;57.97;37.30;;;3.90;47.30;;;;;;5074225;28;20173;-69
2020/12/11 05:17:31;;;;;;;62.42;40.65;;;3.90;47.20;;;;;;5074879;28;20411;-69
2020/12/11 05:19:58;;;;;;;46.03;35.03;;;3.90;46.40;;;;;;5074860;28;20182;-69
2020/12/11 05:22:25;;;;;;;50.95;38.58;;;3.90;45.10;;;;;;5074881;28;20183;-69
2020/12/11 05:24:58;;;;;;;45.05;40.40;;;3.80;45.10;;;;;;5073039;28;20207;-69
2020/12/11 05:27:30;;;;;;;45.15;40.55;;;3.70;42.70;;;;;;5074644;28;20189;-69
2020/12/11 05:30:01;;;;;;;46.00;41.03;;;3.60;46.60;;;;;;5074596;28;20172;-69
2020/12/11 05:32:39;;;;;;;44.30;37.15;;;3.60;49.30;;;;;;5074398;28;20157;-69
2020/12/11 05:35:18;;;;;;;42.42;36.03;;;3.60;46.00;;;;;;5073636;28;20189;-69
2020/12/11 05:37:48;;;;;;;45.28;35.85;;;3.50;46.80;;;;;;5074097;28;20183;-69
2020/12/11 05:40:15;;;;;;;45.10;36.72;;;3.50;49.50;;;;;;5074225;28;20200;-69
2020/12/11 05:42:41;;;;;;;38.83;31.77;;;3.50;47.00;;;;;;5074347;28;20291;-69
2020/12/11 05:45:17;;;;;;;37.00;31.10;;;3.50;48.60;;;;;;5073639;28;20601;-69
2020/12/11 05:47:43;;;;;;;35.95;31.83;;;3.40;52.20;;;;;;5074203;28;20568;-69
2020/12/11 05:50:10;;;;;;;37.07;33.07;;;3.40;52.50;;;;;;5073906;28;20174;-69
2020/12/11 05:52:35;;;;;;;37.63;31.50;;;3.40;52.30;;;;;;5073713;28;20188;-69
2020/12/11 05:55:02;;;;;;;40.27;34.90;;;3.40;53.00;;;;;;5073799;28;20627;-69
2020/12/11 05:57:32;;;;;;;45.50;34.63;;;3.40;51.30;;;;;;5074190;28;20256;-69
2020/12/11 05:59:59;;;;;;;37.75;32.30;;;3.20;52.00;;;;;;5074118;28;20173;-69
2020/12/11 06:02:25;;;;;;;37.30;32.40;;;3.20;56.50;;;;;;5073498;28;20184;-69
2020/12/11 06:04:55;;;;;;;37.00;33.00;;;3.20;58.90;;;;;;5073492;28;20555;-69
2020/12/11 06:07:25;;;;;;;41.63;36.30;;;3.20;56.60;;;;;;5073919;28;20165;-69
2020/12/11 06:09:51;;;;;;;38.53;32.13;;;3.20;57.10;;;;;;5073974;28;20165;-69
2020/12/11 06:12:27;;;;;;;39.90;30.77;;;3.20;57.20;;;;;;5074053;28;20177;-69
2020/12/11 06:15:23;;;;;;;39.67;35.70;;;3.20;55.50;;;;;;5073486;28;20165;-69
2020/12/11 06:18:23;;;;;;;42.45;38.50;;;3.20;62.10;;;;;;5073905;28;20185;-69
2020/12/11 06:20:53;;;;;;;43.92;35.00;;;3.10;57.20;;;;;;5040968;28;20189;-69
2020/12/11 06:23:20;;;;;;;40.00;33.78;;;3.10;58.80;;;;;;5074077;28;20201;-69
2020/12/11 06:25:59;;;;;;;38.15;29.05;;;3.10;60.00;;;;;;5073448;28;20192;-69
2020/12/11 06:28:45;;;;;;;37.13;30.35;;;3.00;61.80;;;;;;5073927;28;20226;-69
2020/12/11 06:31:13;;;;;;;39.50;33.50;;;3.00;74.10;;;;;;5074005;28;20226;-69
2020/12/11 06:33:41;;;;;;;40.38;32.15;;;3.00;64.50;;;;;;5073730;28;20193;-69
2020/12/11 06:36:07;;;;;;;40.25;34.65;;;3.00;64.60;;;;;;5073178;28;20201;-69
2020/12/11 06:38:41;;;;;;;44.75;31.75;;;2.90;71.00;;;;;;5073526;28;20169;-69
2020/12/11 06:41:07;;;;;;;37.47;29.42;;;2.80;74.10;;;;;;5073699;28;20207;-69
2020/12/11 06:43:37;;;;;;;40.00;29.37;;;2.90;75.10;;;;;;5073791;28;20193;-69
2020/12/11 06:46:13;;;;;;;35.50;29.73;;;2.90;75.10;;;;;;5073052;28;20483;-69
2020/12/11 06:49:19;;;;;;;42.65;33.70;;;2.80;76.00;;;;;;5073529;28;20243;-69
2020/12/11 06:51:45;;;;;;;37.03;32.92;;;2.90;77.30;;;;;;5032811;28;20239;-69
2020/12/11 06:54:23;;;;;;;39.87;35.03;;;2.90;75.20;;;;;;5073514;28;20569;-69
2020/12/11 06:56:50;;;;;;;35.85;28.77;;;2.90;77.40;;;;;;5073247;28;20185;-69
2020/12/11 06:59:25;;;;;;;43.65;33.58;;;2.90;78.60;;;;;;5073274;28;20173;-69
2020/12/11 07:02:17;;;;;;;38.60;34.28;;;2.90;87.20;;;;;;5073182;28;20196;-69
2020/12/11 07:04:48;;;;;;;42.13;36.42;;;2.90;79.90;;;;;;5073223;28;20197;-69
2020/12/11 07:07:15;;;;;;;47.83;35.78;;;3.00;80.00;;;;;;5072926;28;20269;-69
2020/12/11 07:09:47;;;;;;;38.33;29.52;;;2.90;79.80;;;;;;5073160;28;20174;-69
2020/12/11 07:12:16;;;;;;;39.13;32.53;;;3.00;79.90;;;;;;5073672;28;20165;-69
2020/12/11 07:14:46;;;;;;;41.45;32.70;;;2.90;79.90;;;;;;5072777;28;20173;-69
2020/12/11 07:17:28;;;;;;;42.53;27.55;;;3.00;81.80;;;;;;5071441;28;20201;-69
2020/12/11 07:19:54;;;;;;;37.72;28.48;;;3.10;83.40;;;;;;5073166;28;20248;-69
2020/12/11 07:22:20;;;;;;;41.80;27.70;;;3.00;81.70;;;;;;5071727;28;20878;-69
2020/12/11 07:24:47;;;;;;;36.42;32.47;;;3.00;80.70;;;;;;5072833;28;20529;-69
2020/12/11 07:27:13;;;;;;;39.42;28.38;;;3.10;80.40;;;;;;5073907;28;20268;-69
2020/12/11 07:29:47;;;;;;;34.97;26.10;;;3.10;78.50;;;;;;5077120;28;20676;-69
2020/12/11 07:32:17;;;;;;;37.53;30.38;;;3.10;78.80;;;;;;5076937;28;20167;-69
2020/12/11 07:34:44;;;;;;;38.42;33.33;;;3.10;75.90;;;;;;5076212;28;20207;-69
2020/12/11 07:37:09;;;;;;;32.72;27.30;;;3.10;76.10;;;;;;5077482;28;20192;-69
2020/12/11 07:39:35;;;;;;;35.30;27.53;;;3.00;75.40;;;;;;5085959;28;20176;-69
2020/12/11 07:42:01;;;;;;;34.40;29.37;;;3.00;77.90;;;;;;5084565;28;20555;-69
2020/12/11 07:44:32;;;;;;;37.70;26.88;;;3.00;78.40;;;;;;5084693;28;20188;-69
2020/12/11 07:47:02;;;;;;;35.22;26.90;;;3.00;81.10;;;;;;5084370;28;20203;-69
2020/12/11 07:49:38;;;;;;;32.15;28.63;;;3.10;78.80;;;;;;5086067;28;20554;-69
2020/12/11 07:52:05;;;;;;;37.63;28.58;;;3.10;77.30;;;;;;5086136;28;20549;-69
2020/12/11 07:54:41;;;;;;;33.92;26.90;;;3.00;76.80;;;;;;5084566;28;20172;-69
2020/12/11 07:57:18;;;;;;;31.40;27.55;;;3.00;78.20;;;;;;5085439;28;20569;-69
2020/12/11 08:00:03;;;;;;;44.42;28.40;;;3.00;76.60;;;;;;5078957;28;20173;-69
2020/12/11 08:02:31;;;;;;;38.22;29.20;;;3.00;77.70;;;;;;5084026;28;20169;-69
2020/12/11 08:04:57;;;;;;;35.38;29.70;;;3.00;77.70;;;;;;5084376;28;20550;-69
2020/12/11 08:07:30;;;;;;;34.97;30.60;;;3.10;75.70;;;;;;5083102;28;20177;-69
2020/12/11 08:10:16;;;;;;;38.55;29.05;;;3.10;75.90;;;;;;5084523;28;20774;-69
2020/12/11 08:12:43;;;;;;;33.17;27.70;;;3.20;74.70;;;;;;5085796;28;20252;-69
2020/12/11 08:15:11;;;;;;;33.38;28.65;;;3.20;76.40;;;;;;5077766;28;20177;-69
2020/12/11 08:17:37;;;;;;;37.40;31.05;;;3.20;74.20;;;;;;5075302;28;20169;-69
2020/12/11 08:20:07;;;;;;;37.67;32.47;;;3.10;72.10;;;;;;5076259;28;20165;-69
2020/12/11 08:22:35;;;;;;;35.45;31.73;;;3.20;72.60;;;;;;5075461;28;20185;-69
2020/12/11 08:25:22;;;;;;;39.63;32.58;;;3.20;71.20;;;;;;5079973;28;20200;-69
2020/12/11 08:27:49;;;;;;;34.90;28.27;;;3.20;71.40;;;;;;5091641;28;20161;-69
2020/12/11 08:30:15;;;;;;;39.55;28.80;;;3.10;71.30;;;;;;5075680;28;20256;-69
2020/12/11 08:32:43;;;;;;;32.75;28.33;;;3.10;71.60;;;;;;5075626;28;20260;-69
2020/12/11 08:35:22;;;;;;;44.45;32.47;;;3.10;72.40;;;;;;5075075;28;20197;-69
2020/12/11 08:37:56;;;;;;;33.63;29.80;;;3.00;73.60;;;;;;5075078;28;20185;-69
2020/12/11 08:40:23;;;;;;;33.08;29.80;;;3.00;75.70;;;;;;5075819;28;20514;-69
2020/12/11 08:49:18;;;;;;;36.92;32.58;;;3.20;73.70;;;;;;5075552;28;20231;-69
2020/12/11 08:51:38;;;;;;;41.67;37.88;;;3.20;72.50;;;;;;5074815;28;20207;-69
2020/12/11 08:54:08;;;;;;;36.20;32.70;;;3.30;74.40;;;;;;5075219;28;20627;-69
2020/12/11 08:56:34;;;;;;;32.00;28.55;;;3.30;77.70;;;;;;5075044;28;20189;-69
2020/12/11 08:58:59;;;;;;;30.37;27.07;;;3.30;75.30;;;;;;5075372;28;20226;-69
2020/12/11 09:01:25;;;;;;;31.90;28.30;;;3.30;73.60;;;;;;5075410;28;20248;-69
2020/12/11 09:03:51;;;;;;;36.63;33.00;;;3.30;71.90;;;;;;5074703;28;20311;-69
2020/12/11 09:06:16;;;;;;;34.87;31.80;;;3.30;70.50;;;;;;5074638;28;20280;-69
2020/12/11 09:08:42;;;;;;;38.20;33.13;;;3.30;70.30;;;;;;5075020;28;20166;-69
2020/12/11 09:11:07;;;;;;;31.07;27.83;;;3.30;70.60;;;;;;5074884;28;20176;-69
2020/12/11 09:13:34;;;;;;;36.50;30.00;;;3.30;68.60;;;;;;5075060;28;20252;-69
2020/12/11 09:15:59;;;;;;;38.17;34.72;;;3.40;70.90;;;;;;5074332;28;20205;-69
2020/12/11 09:18:25;;;;;;;34.80;31.20;;;3.40;67.90;;;;;;5074500;28;20310;-69
2020/12/11 09:20:50;;;;;;;29.13;26.23;;;3.40;68.00;;;;;;5074488;28;20169;-69
2020/12/11 09:23:16;;;;;;;34.30;30.50;;;3.50;69.90;;;;;;5074579;28;20181;-69
2020/12/11 09:25:42;;;;;;;31.93;28.60;;;3.60;70.30;;;;;;5074328;28;20191;-69
2020/12/11 09:28:14;;;;;;;34.37;28.53;;;3.60;69.50;;;;;;5074794;28;20164;-69
2020/12/11 09:30:40;;;;;;;31.10;27.92;;;3.60;67.10;;;;;;5074859;28;20158;-69
2020/12/11 09:33:15;;;;;;;31.05;27.92;;;3.60;69.00;;;;;;5074277;28;20203;-69
2020/12/11 09:35:40;;;;;;;36.95;33.65;;;3.60;69.90;;;;;;5074184;28;20203;-69
2020/12/11 09:38:06;;;;;;;34.07;30.80;;;3.70;71.10;;;;;;5074168;28;20173;-69
2020/12/11 09:40:44;;;;;;;33.30;30.10;;;3.70;70.40;;;;;;5074433;28;20165;-69
2020/12/11 09:46:15;;;;;;;36.67;32.97;;;3.90;69.00;;;;;;5073947;28;20215;-69
2020/12/11 09:56:23;;;;;;;29.73;26.92;;;3.90;71.80;;;;;;5074105;28;20650;-69
2020/12/11 09:58:51;;;;;;;30.92;27.85;;;4.00;71.80;;;;;;5074070;28;20165;-69
2020/12/11 10:01:22;;;;;;;33.03;29.95;;;3.90;70.50;;;;;;5073914;28;20169;-69
2020/12/11 10:03:48;;;;;;;34.85;31.33;;;3.90;71.20;;;;;;5074366;28;20189;-69
2020/12/11 10:06:21;;;;;;;30.33;27.30;;;3.90;74.30;;;;;;5073569;28;20195;-69
2020/12/11 10:08:47;;;;;;;27.50;24.80;;;4.00;73.80;;;;;;5073931;28;20161;-69
2020/12/11 10:11:18;;;;;;;29.30;26.70;;;4.00;73.30;;;;;;5074046;28;20169;-69
2020/12/11 10:13:44;;;;;;;29.92;26.80;;;4.00;78.50;;;;;;5074311;28;20177;-69
2020/12/11 10:16:09;;;;;;;32.20;28.93;;;4.00;72.10;;;;;;5073878;28;20707;-69
2020/12/11 10:18:35;;;;;;;32.93;29.83;;;4.00;73.60;;;;;;5074156;28;20252;-70
2020/12/11 10:21:01;;;;;;;32.47;29.40;;;4.00;74.90;;;;;;5073795;28;20196;-69
2020/12/11 10:23:29;;;;;;;26.80;24.30;;;4.10;76.30;;;;;;5073563;28;20491;-69
2020/12/11 10:25:54;;;;;;;27.20;24.42;;;4.20;75.60;;;;;;5073195;28;20280;-69
2020/12/11 10:28:20;;;;;;;29.83;26.47;;;4.10;42.50;;;;;;5073846;28;20207;-69
2020/12/11 10:30:45;;;;;;;25.10;22.43;;;4.10;43.90;;;;;;5073954;28;20177;-69
2020/12/11 10:33:11;;;;;;;30.50;27.60;;;4.20;44.80;;;;;;5073856;28;20264;-70
2020/12/11 10:35:36;;;;;;;31.17;25.83;;;4.20;44.00;;;;;;5073364;28;20281;-69
2020/12/11 10:38:02;;;;;;;28.53;25.67;;;4.20;43.90;;;;;;5073494;28;20176;-69
2020/12/11 10:40:27;;;;;;;26.80;24.40;;;4.20;44.90;;;;;;5073744;28;20177;-70
2020/12/11 10:42:53;;;;;;;29.90;27.33;;;4.20;45.90;;;;;;5073808;28;20251;-69
2020/12/11 10:45:18;;;;;;;28.37;25.80;;;4.30;46.70;;;;;;5073213;28;20255;-70
2020/12/11 10:47:44;;;;;;;31.17;28.10;;;4.30;47.40;;;;;;5073866;28;20173;-69
2020/12/11 10:50:10;;;;;;;29.47;26.20;;;4.40;47.10;;;;;;5073256;28;20522;-69
2020/12/11 10:52:35;;;;;;;29.97;27.17;;;4.40;45.40;;;;;;5073345;28;20603;-70
2020/12/11 10:55:01;;;;;;;27.27;24.77;;;4.30;45.60;;;;;;5073075;28;20238;-70
2020/12/11 10:57:26;;;;;;;28.17;25.60;;;4.30;46.90;;;;;;5073558;28;20180;-69
2020/12/11 10:59:52;;;;;;;29.87;27.27;;;4.40;47.30;;;;;;5073666;28;20504;-69
2020/12/11 11:02:17;;;;;;;26.23;23.57;;;4.30;46.10;;;;;;5074549;28;20169;-69
2020/12/11 11:04:43;;;;;;;30.83;27.97;;;4.30;47.00;;;;;;5076966;28;20254;-69
2020/12/11 11:07:21;;;;;;;29.17;26.70;;;4.40;47.00;;;;;;5077121;28;20196;-69
2020/12/11 11:10:13;;;;;;;32.15;29.25;;;4.30;48.30;;;;;;5077425;28;20167;-69
2020/12/11 11:12:36;;;;;;;28.45;25.48;;;4.30;49.50;;;;;;5077336;28;20177;-69
2020/12/11 11:23:48;;;;;;;30.65;27.83;;;4.40;50.20;;;;;;5051638;28;20251;-70
2020/12/11 11:26:30;;;;;;;29.70;27.00;;;4.40;50.00;;;;;;5051251;28;20606;-70
2020/12/11 11:28:56;;;;;;;35.15;32.25;;;4.40;49.70;;;;;;5084187;28;20203;-69
2020/12/11 11:31:21;;;;;;;36.33;33.43;;;4.50;50.20;;;;;;5094516;28;20627;-70
2020/12/11 11:33:47;;;;;;;35.37;32.27;;;4.50;50.00;;;;;;5094043;28;20188;-69
2020/12/11 11:36:13;;;;;;;32.83;29.77;;;4.50;50.40;;;;;;5094040;28;20180;-70
2020/12/11 11:38:38;;;;;;;33.43;30.80;;;4.60;50.60;;;;;;5094412;28;20175;-70
2020/12/11 11:41:04;;;;;;;36.90;34.10;;;4.60;51.90;;;;;;5094231;28;20218;-70
2020/12/11 11:46:07;;;;;;;31.27;28.50;;;4.70;52.50;;;;;;5076261;28;20743;-70
2020/12/11 11:48:32;;;;;;;37.17;33.67;;;4.80;54.30;;;;;;5094178;28;20196;-70
2020/12/11 11:51:06;;;;;;;32.10;29.43;;;4.80;54.40;;;;;;5094218;28;20168;-70
2020/12/11 11:53:31;;;;;;;29.50;27.15;;;4.80;53.90;;;;;;5092834;28;20157;-70
2020/12/11 11:55:57;;;;;;;30.50;27.57;;;4.80;55.80;;;;;;5093882;28;20677;-70
2020/12/11 11:58:22;;;;;;;26.97;24.07;;;4.80;55.80;;;;;;5093881;28;20535;-70
2020/12/11 12:00:48;;;;;;;33.73;30.70;;;4.80;55.60;;;;;;5093093;28;20168;-69
2020/12/11 12:03:13;;;;;;;29.57;26.80;;;4.90;56.40;;;;;;5093828;28;20541;-70
2020/12/11 12:05:42;;;;;;;25.20;22.57;;;4.80;55.60;;;;;;5093595;28;20204;-70
2020/12/11 12:08:08;;;;;;;28.70;26.10;;;4.80;56.50;;;;;;5093818;28;20237;-70
2020/12/11 12:10:33;;;;;;;28.80;26.30;;;4.90;57.40;;;;;;5093693;28;20176;-70
2020/12/11 12:12:59;;;;;;;32.13;29.63;;;4.90;58.70;;;;;;5093068;28;20177;-70
2020/12/11 12:15:26;;;;;;;29.40;27.00;;;5.00;57.70;;;;;;5093046;28;20193;-70
2020/12/11 12:17:59;;;;;;;29.60;27.02;;;4.90;55.80;;;;;;5093404;28;20642;-71
2020/12/11 12:20:39;;;;;;;29.17;26.60;;;4.90;57.30;;;;;;5092253;28;20196;-70
2020/12/11 12:28:42;;;;;;;28.50;22.92;;;5.00;59.90;;;;;;5093315;28;20194;-69
2020/12/11 12:31:10;;;;;;;24.38;22.13;;;5.00;59.30;;;;;;5093165;28;20168;-70
2020/12/11 12:39:32;;;;;;;25.80;23.27;;;4.90;60.50;;;;;;5093330;28;20194;-70
2020/12/11 12:44:22;;;;;;;28.25;24.10;;;4.90;61.40;;;;;;5093013;28;20284;-69
2020/12/11 12:46:48;;;;;;;27.93;25.40;;;5.00;63.80;;;;;;5092727;28;20271;-69
2020/12/11 12:49:14;;;;;;;28.53;26.03;;;5.10;61.50;;;;;;5092758;28;20164;-69
2020/12/11 12:51:39;;;;;;;24.03;21.83;;;5.20;65.20;;;;;;5092877;28;20164;-69
2020/12/11 12:54:05;;;;;;;23.43;21.13;;;5.20;69.10;;;;;;5092781;28;20574;-69
2020/12/11 12:59:09;;;;;;;25.98;23.38;;;5.20;69.40;;;;;;5092700;28;20606;-70
2020/12/11 13:06:32;;;;;;;25.77;23.27;;;5.20;72.20;;;;;;5092528;28;20192;-69
2020/12/11 13:08:57;;;;;;;27.87;25.20;;;5.30;73.90;;;;;;5085785;28;20251;-69
2020/12/11 13:11:23;;;;;;;29.03;26.83;;;5.20;71.70;;;;;;5092140;28;20185;-69
2020/12/11 13:13:49;;;;;;;31.33;28.90;;;5.20;72.50;;;;;;5091942;28;20242;-69
2020/12/11 13:16:15;;;;;;;30.20;27.93;;;5.10;71.90;;;;;;5088274;28;20196;-70
2020/12/11 13:18:40;;;;;;;27.93;25.23;;;5.20;75.20;;;;;;5091750;28;20196;-69
2020/12/11 13:21:11;;;;;;;27.60;24.87;;;5.10;73.70;;;;;;5091589;28;20191;-70
2020/12/11 13:26:55;;;;;;;29.25;26.63;;;5.10;74.30;;;;;;5090487;28;20204;-69
2020/12/11 13:29:13;;;;;;;27.73;25.05;;;5.20;76.60;;;;;;5070073;28;20195;-69
2020/12/11 13:31:42;;;;;;;28.02;25.33;;;5.10;77.90;;;;;;5069866;28;20222;-69
2020/12/11 13:34:08;;;;;;;24.20;21.90;;;5.20;77.90;;;;;;5071169;28;20674;-70